Delta Virtual Airport Information Service

Bordeaux Merignac Airport

ICAO: LFBD Country: France
Latitude: 44.8286 Longitude: -0.71527
Latest Arrival : AFR695982 (LFPO-LFBD) Latest Departure : AFR6956201 (LFBD-LFPO)


WX CaptureLIVE
Data provided by noaa.gov | Fetched at 00:10:38

METAR : LFBD 080530Z AUTO 30002KT 4200 BR FEW031 OVC100 06/06 Q1018 TEMPO BKN030TCU

TAF : LFBD 080500Z 0806/0912 36005KT 3000 BR BKN040 TX12/0814Z TN01/0906Z BECMG 0806/0808 9999 NSW BECMG 0814/0816 CAVOK


Runway Data for LFBD
Data provided by openaviationdata.com

Runway ID Mag Var Hdg Length Elevation Surface ILS Freq ILS Id ILS Slope
5 -1 46° 10176 ft 166 ft Bituminous -- -- --
11 -1 107° 7925 ft 166 ft Bituminous -- -- --
23 -1 226° 10176 ft 166 ft Bituminous 110.3 BD 3
29 -1 287° 7925 ft 166 ft Bituminous 111.15 BEI 3

Bordeaux Merignac Airport, France
Use only for reference purposes



Not for navigational purposes.